createdAt,value
2023-03-07T00:00:42.203Z,0.65
2023-03-07T00:03:13.244Z,0.58
2023-03-07T00:05:43.778Z,0.62
2023-03-07T00:08:12.822Z,0.63
2023-03-07T00:10:44.621Z,0.63
2023-03-07T00:13:13.080Z,0.60
2023-03-07T00:15:42.604Z,0.63
2023-03-07T00:18:10.946Z,0.67
2023-03-07T00:20:39.589Z,0.68
2023-03-07T00:23:09.324Z,0.61
2023-03-07T00:25:38.036Z,0.66
2023-03-07T00:28:06.791Z,0.57
2023-03-07T00:30:35.077Z,0.54
2023-03-07T00:33:06.877Z,0.49
2023-03-07T00:35:35.324Z,0.48
2023-03-07T00:38:04.034Z,0.43
2023-03-07T00:40:34.963Z,0.40
2023-03-07T00:43:03.332Z,0.34
2023-03-07T00:45:31.631Z,0.29
2023-03-07T00:48:00.253Z,0.22
2023-03-07T00:50:30.004Z,0.22
2023-03-07T00:52:58.837Z,0.17
2023-03-07T00:55:27.161Z,0.15
2023-03-07T00:57:57.179Z,0.16
2023-03-07T01:00:25.664Z,0.12
2023-03-07T01:02:55.354Z,0.08
2023-03-07T01:05:24.888Z,0.04
2023-03-07T01:07:53.609Z,0.03
2023-03-07T01:10:22.031Z,0.02
2023-03-07T01:12:50.330Z,-0.03
2023-03-07T01:15:20.269Z,0.04
2023-03-07T01:17:48.649Z,0.12
2023-03-07T01:20:17.729Z,0.10
2023-03-07T01:22:47.034Z,0.09
2023-03-07T01:25:15.435Z,0.03
2023-03-07T01:27:44.301Z,-0.02
2023-03-07T01:30:13.889Z,-0.01
2023-03-07T01:32:44.027Z,0.00
2023-03-07T01:35:15.448Z,-0.06
2023-03-07T01:37:43.807Z,-0.07
2023-03-07T01:40:14.061Z,-0.09
2023-03-07T01:42:42.930Z,-0.15
2023-03-07T01:46:18.567Z,-0.08
2023-03-07T01:49:01.027Z,-0.11
2023-03-07T01:51:32.896Z,-0.13
2023-03-07T01:54:07.418Z,-0.15
2023-03-07T01:56:38.939Z,-0.21
2023-03-07T01:59:09.523Z,-0.20
2023-03-07T02:01:39.160Z,-0.20
2023-03-07T02:04:17.155Z,-0.25
2023-03-07T02:06:46.034Z,-0.29
2023-03-07T02:09:21.784Z,-0.25
2023-03-07T02:11:51.516Z,-0.29
2023-03-07T02:14:20.353Z,-0.28
2023-03-07T02:16:49.910Z,-0.25
2023-03-07T02:19:38.682Z,-0.23
2023-03-07T02:22:13.379Z,-0.17
2023-03-07T02:24:53.541Z,-0.09
2023-03-07T02:27:26.913Z,0.00
2023-03-07T02:29:55.579Z,0.03
2023-03-07T02:32:24.161Z,0.10
2023-03-07T02:34:52.541Z,0.12
2023-03-07T02:37:30.251Z,0.09
2023-03-07T02:40:06.093Z,0.07
2023-03-07T02:42:42.593Z,0.03
2023-03-07T02:45:18.769Z,0.06
2023-03-07T02:47:48.308Z,0.11
2023-03-07T02:50:19.562Z,0.17
2023-03-07T02:52:52.397Z,0.19
2023-03-07T02:55:21.070Z,0.23
2023-03-07T02:58:04.225Z,0.18
2023-03-07T03:00:33.158Z,0.17
2023-03-07T03:03:01.616Z,0.14
2023-03-07T03:05:30.138Z,0.14
2023-03-07T03:07:58.589Z,0.08
2023-03-07T03:10:26.932Z,0.10
2023-03-07T03:12:55.602Z,0.07
2023-03-07T03:15:26.414Z,0.04
2023-03-07T03:17:55.890Z,0.03
2023-03-07T03:20:26.039Z,0.01
2023-03-07T03:22:54.878Z,0.03
2023-03-07T03:25:25.197Z,0.03
2023-03-07T03:27:54.033Z,0.00
2023-03-07T03:30:23.305Z,-0.04
2023-03-07T03:32:53.477Z,-0.08
2023-03-07T03:35:21.978Z,-0.17
2023-03-07T03:37:50.602Z,-0.26
2023-03-07T03:40:19.557Z,-0.35
2023-03-07T03:42:48.444Z,-0.48
2023-03-07T03:45:19.545Z,-0.58
2023-03-07T03:47:50.526Z,-0.71
2023-03-07T03:50:20.543Z,-0.82
2023-03-07T03:52:48.910Z,-1.03
2023-03-07T03:55:17.563Z,-1.17
2023-03-07T03:57:46.282Z,-1.23
2023-03-07T04:00:16.211Z,-1.31
2023-03-07T04:02:45.360Z,-1.30
2023-03-07T04:05:19.329Z,-1.36
2023-03-07T04:07:47.696Z,-1.41
2023-03-07T04:10:19.811Z,-1.46
2023-03-07T04:12:48.203Z,-1.49
2023-03-07T04:15:17.576Z,-1.55
2023-03-07T04:17:45.984Z,-1.54
2023-03-07T04:20:17.697Z,-1.53
2023-03-07T04:22:49.038Z,-1.51
2023-03-07T04:25:18.528Z,-1.50
2023-03-07T04:27:47.221Z,-1.49
2023-03-07T04:30:15.731Z,-1.46
2023-03-07T04:32:44.348Z,-1.43
2023-03-07T04:35:12.659Z,-1.39
2023-03-07T04:37:41.056Z,-1.42
2023-03-07T04:40:12.906Z,-1.42
2023-03-07T04:42:41.756Z,-1.42
2023-03-07T04:45:11.679Z,-1.35
2023-03-07T04:47:40.559Z,-1.28
2023-03-07T04:50:10.252Z,-1.20
2023-03-07T04:52:39.949Z,-1.06
2023-03-07T04:55:11.063Z,-0.93
2023-03-07T04:57:39.603Z,-0.81
2023-03-07T05:00:10.239Z,-0.84
2023-03-07T05:02:39.596Z,-0.89
2023-03-07T05:05:12.340Z,-0.99
2023-03-07T05:07:41.244Z,-1.03
2023-03-07T05:10:13.243Z,-1.03
2023-03-07T05:12:41.907Z,-1.01
2023-03-07T05:15:12.950Z,-0.91
2023-03-07T05:17:41.586Z,-0.78
2023-03-07T05:20:13.138Z,-0.69
2023-03-07T05:22:42.841Z,-0.62
2023-03-07T05:25:12.932Z,-0.60
2023-03-07T05:27:42.705Z,-0.54
2023-03-07T05:30:13.707Z,-0.49
2023-03-07T05:32:42.181Z,-0.43
2023-03-07T05:35:13.980Z,-0.32
2023-03-07T05:37:43.331Z,-0.30
2023-03-07T05:40:15.355Z,-0.23
2023-03-07T05:42:47.544Z,-0.13
2023-03-07T05:45:16.402Z,-0.11
2023-03-07T05:47:44.938Z,-0.11
2023-03-07T05:50:15.546Z,-0.11
2023-03-07T05:52:44.421Z,-0.05
2023-03-07T05:55:14.371Z,-0.04
2023-03-07T05:57:43.011Z,-0.02
2023-03-07T06:00:13.688Z,-0.05
2023-03-07T06:02:50.937Z,-0.03
2023-03-07T06:05:19.426Z,-0.11
2023-03-07T06:07:48.655Z,-0.11
2023-03-07T06:10:19.069Z,-0.15
2023-03-07T06:12:52.225Z,-0.14
2023-03-07T06:15:23.194Z,-0.11
2023-03-07T06:17:56.193Z,-0.10
2023-03-07T06:20:24.862Z,-0.05
2023-03-07T06:22:55.864Z,-0.06
2023-03-07T06:25:25.852Z,-0.10
2023-03-07T06:27:59.689Z,-0.09
2023-03-07T06:30:29.243Z,-0.08
2023-03-07T06:32:57.679Z,-0.01
2023-03-07T06:35:29.781Z,-0.05
2023-03-07T06:37:58.113Z,0.01
2023-03-07T06:40:28.247Z,0.10
2023-03-07T06:42:56.902Z,0.17
2023-03-07T06:45:25.345Z,0.31
2023-03-07T06:47:53.714Z,0.42
2023-03-07T06:50:33.431Z,0.49
2023-03-07T06:53:05.614Z,0.60
2023-03-07T06:55:35.494Z,0.67
2023-03-07T06:58:03.909Z,0.64
2023-03-07T07:00:32.290Z,0.66
2023-03-07T07:03:00.793Z,0.69
2023-03-07T07:05:29.097Z,0.73
2023-03-07T07:07:57.523Z,0.74
2023-03-07T07:10:26.088Z,0.81
2023-03-07T07:12:57.063Z,0.85
2023-03-07T07:15:27.520Z,0.86
2023-03-07T07:17:56.028Z,0.88
2023-03-07T07:20:25.444Z,0.91
2023-03-07T07:22:54.744Z,0.95
2023-03-07T07:25:23.323Z,1.02
2023-03-07T07:27:51.716Z,1.13
2023-03-07T07:30:21.510Z,1.13
2023-03-07T07:32:50.739Z,1.21
2023-03-07T07:35:20.384Z,1.23
2023-03-07T07:37:48.919Z,1.26
2023-03-07T07:40:17.498Z,1.35
2023-03-07T07:42:54.359Z,1.32
2023-03-07T07:45:45.825Z,1.37
2023-03-07T07:48:17.991Z,1.47
2023-03-07T07:50:47.616Z,1.50
2023-03-07T07:53:17.948Z,1.42
2023-03-07T07:55:48.950Z,1.39
2023-03-07T07:58:18.231Z,1.54
2023-03-07T08:00:48.739Z,1.56
2023-03-07T08:03:17.094Z,1.57
2023-03-07T08:05:51.300Z,1.61
2023-03-07T08:08:21.108Z,1.68
2023-03-07T08:10:49.918Z,1.88
2023-03-07T08:13:19.061Z,1.82
2023-03-07T08:15:48.954Z,2.13
2023-03-07T08:18:17.299Z,2.01
2023-03-07T08:20:45.729Z,1.93
2023-03-07T08:23:14.231Z,1.84
2023-03-07T08:25:42.558Z,1.90
2023-03-07T08:28:15.022Z,1.99
2023-03-07T08:30:43.256Z,2.04
2023-03-07T08:33:12.891Z,1.98
2023-03-07T08:35:41.362Z,2.12
2023-03-07T08:38:10.306Z,2.16
2023-03-07T08:40:38.692Z,2.19
2023-03-07T08:43:06.940Z,2.35
2023-03-07T08:45:35.315Z,2.29
2023-03-07T08:48:03.565Z,2.31
2023-03-07T08:50:33.322Z,2.20
2023-03-07T08:53:01.600Z,2.36
2023-03-07T08:55:30.015Z,2.44
2023-03-07T08:57:58.308Z,2.52
2023-03-07T09:00:26.899Z,2.45
2023-03-07T09:02:58.446Z,2.56
2023-03-07T09:05:27.434Z,2.71
2023-03-07T09:07:58.306Z,2.89
2023-03-07T09:10:27.577Z,3.11
2023-03-07T09:12:56.988Z,3.46
2023-03-07T09:15:25.610Z,3.25
2023-03-07T09:17:54.504Z,3.23
2023-03-07T09:20:22.831Z,3.13
2023-03-07T09:22:51.795Z,3.06
2023-03-07T09:25:22.221Z,3.00
2023-03-07T09:27:52.037Z,3.10
2023-03-07T09:30:20.625Z,3.25
2023-03-07T09:32:50.259Z,3.41
2023-03-07T09:35:19.452Z,3.32
2023-03-07T09:37:47.761Z,3.73
2023-03-07T09:40:24.473Z,4.04
2023-03-07T09:43:03.508Z,3.80
2023-03-07T09:45:48.498Z,3.80
2023-03-07T09:49:00.788Z,3.70
2023-03-07T09:51:40.133Z,3.96
2023-03-07T09:54:16.272Z,5.27
2023-03-07T09:56:50.797Z,5.74
2023-03-07T09:59:24.393Z,5.30
2023-03-07T10:02:02.289Z,4.86
2023-03-07T10:04:44.442Z,5.09
2023-03-07T10:07:17.686Z,4.54
2023-03-07T10:09:47.206Z,4.66
2023-03-07T10:12:44.342Z,6.00
2023-03-07T10:15:46.987Z,6.63
2023-03-07T10:18:29.557Z,5.83
2023-03-07T10:21:13.935Z,5.37
2023-03-07T10:24:23.958Z,5.08
2023-03-07T10:27:02.160Z,6.09
2023-03-07T10:29:42.904Z,7.14
2023-03-07T10:32:35.885Z,8.45
2023-03-07T10:35:20.863Z,7.60
2023-03-07T10:37:53.666Z,7.62
2023-03-07T10:40:28.030Z,6.67
2023-03-07T10:42:57.907Z,7.59
2023-03-07T10:45:32.139Z,7.21
2023-03-07T10:48:08.114Z,6.96
2023-03-07T10:50:50.212Z,5.62
2023-03-07T10:53:26.868Z,5.33
2023-03-07T10:56:14.799Z,5.01
2023-03-07T10:59:03.064Z,4.73
2023-03-07T11:01:35.818Z,4.86
2023-03-07T11:04:07.359Z,5.20
2023-03-07T11:06:40.607Z,5.10
2023-03-07T11:09:24.795Z,4.97
2023-03-07T11:11:57.928Z,5.01
2023-03-07T11:14:28.808Z,5.04
2023-03-07T11:17:01.033Z,5.27
2023-03-07T11:19:43.608Z,5.04
2023-03-07T11:22:29.303Z,4.80
2023-03-07T11:25:15.788Z,4.77
2023-03-07T11:27:52.798Z,4.90
2023-03-07T11:30:29.972Z,4.65
2023-03-07T11:33:11.609Z,4.84
2023-03-07T11:35:58.786Z,5.02
2023-03-07T11:38:52.760Z,5.25
2023-03-07T11:41:28.297Z,7.12
2023-03-07T11:44:32.969Z,7.32
2023-03-07T11:47:24.037Z,7.12
2023-03-07T11:50:13.948Z,7.92
2023-03-07T11:53:29.442Z,6.94
2023-03-07T11:56:19.201Z,6.50
2023-03-07T11:59:24.089Z,5.80
2023-03-07T12:01:58.436Z,5.45
2023-03-07T12:04:54.445Z,5.65
2023-03-07T12:07:59.006Z,5.37
2023-03-07T12:10:52.095Z,5.22
2023-03-07T12:13:41.761Z,5.39
2023-03-07T12:16:27.627Z,5.01
2023-03-07T12:19:38.340Z,5.50
2023-03-07T12:22:28.557Z,5.35
2023-03-07T12:25:29.309Z,5.27
2023-03-07T12:28:10.277Z,5.26
2023-03-07T12:30:52.889Z,5.13
2023-03-07T12:33:30.742Z,4.96
2023-03-07T12:36:07.045Z,4.87
2023-03-07T12:38:43.040Z,4.83
2023-03-07T12:41:33.070Z,5.00
2023-03-07T12:44:08.829Z,4.94
2023-03-07T12:46:48.755Z,5.16
2023-03-07T12:49:25.897Z,5.78
2023-03-07T12:52:01.718Z,5.63
2023-03-07T12:54:35.301Z,5.77
2023-03-07T12:57:12.268Z,5.28
2023-03-07T12:59:45.087Z,5.02
2023-03-07T13:02:21.377Z,4.86
2023-03-07T13:04:49.794Z,4.89
2023-03-07T13:07:25.579Z,4.88
2023-03-07T13:09:58.207Z,4.99
2023-03-07T13:12:43.948Z,5.01
2023-03-07T13:16:05.600Z,4.88
2023-03-07T13:18:34.284Z,5.07
2023-03-07T13:21:33.662Z,5.18
2023-03-07T13:24:35.980Z,5.38
2023-03-07T13:27:14.374Z,6.10
2023-03-07T13:30:24.211Z,6.01
2023-03-07T13:33:11.514Z,5.96
2023-03-07T13:35:58.805Z,6.07
2023-03-07T13:38:35.437Z,5.75
2023-03-07T13:41:05.059Z,6.12
2023-03-07T13:44:01.728Z,5.97
2023-03-07T13:47:01.475Z,5.65
2023-03-07T13:49:47.703Z,5.90
2023-03-07T13:52:45.782Z,5.79
2023-03-07T13:55:39.570Z,5.92
2023-03-07T13:58:25.103Z,6.99
2023-03-07T14:00:59.120Z,7.68
2023-03-07T14:03:34.388Z,8.20
2023-03-07T14:06:12.668Z,8.40
2023-03-07T14:08:41.334Z,9.34
2023-03-07T14:11:23.049Z,8.46
2023-03-07T14:14:39.885Z,8.00
2023-03-07T14:17:27.432Z,6.96
2023-03-07T14:20:11.501Z,7.91
2023-03-07T14:22:59.857Z,7.91
2023-03-07T14:25:32.498Z,7.09
2023-03-07T14:28:05.633Z,7.60
2023-03-07T14:30:35.565Z,7.55
2023-03-07T14:33:04.257Z,7.61
2023-03-07T14:35:43.871Z,7.36
2023-03-07T14:38:22.120Z,7.78
2023-03-07T14:41:18.520Z,7.03
2023-03-07T14:44:05.158Z,6.40
2023-03-07T14:46:49.942Z,6.02
2023-03-07T14:49:36.359Z,6.83
2023-03-07T14:52:06.809Z,7.08
2023-03-07T14:54:38.524Z,6.97
2023-03-07T14:57:19.368Z,6.45
2023-03-07T15:00:15.538Z,5.90
2023-03-07T15:02:49.321Z,5.67
2023-03-07T15:05:21.082Z,5.48
2023-03-07T15:07:51.418Z,5.51
2023-03-07T15:10:24.098Z,5.41
2023-03-07T15:12:56.160Z,5.40
2023-03-07T15:15:37.356Z,5.41
2023-03-07T15:18:16.900Z,5.36
2023-03-07T15:20:46.310Z,5.12
2023-03-07T15:23:24.057Z,5.13
2023-03-07T15:25:56.938Z,5.36
2023-03-07T15:28:30.492Z,5.89
2023-03-07T15:30:59.542Z,6.98
2023-03-07T15:33:30.790Z,7.93
2023-03-07T15:36:18.353Z,7.76
2023-03-07T15:38:50.300Z,7.91
2023-03-07T15:41:33.343Z,8.00
2023-03-07T15:44:08.505Z,7.05
2023-03-07T15:46:41.450Z,6.32
2023-03-07T15:49:31.952Z,6.50
2023-03-07T15:52:01.576Z,6.58
2023-03-07T15:54:40.789Z,5.97
2023-03-07T15:57:19.298Z,5.25
2023-03-07T15:59:56.626Z,4.97
2023-03-07T16:02:45.197Z,4.72
2023-03-07T16:05:38.691Z,4.62
2023-03-07T16:08:14.478Z,4.62
2023-03-07T16:10:52.207Z,5.20
2023-03-07T16:13:24.204Z,5.45
2023-03-07T16:16:06.845Z,5.61
2023-03-07T16:18:36.114Z,5.24
2023-03-07T16:21:04.669Z,5.15
2023-03-07T16:23:34.103Z,4.86
2023-03-07T16:26:09.102Z,4.50
2023-03-07T16:28:37.485Z,4.28
2023-03-07T16:31:12.339Z,4.39
2023-03-07T16:33:40.828Z,4.43
2023-03-07T16:36:11.723Z,4.34
2023-03-07T16:38:40.308Z,4.20
2023-03-07T16:41:19.047Z,3.99
2023-03-07T16:43:53.230Z,3.92
2023-03-07T16:46:24.483Z,3.77
2023-03-07T16:48:52.871Z,3.69
2023-03-07T16:51:25.645Z,3.58
2023-03-07T16:53:57.099Z,3.47
2023-03-07T16:56:32.480Z,3.34
2023-03-07T16:59:02.469Z,3.27
2023-03-07T17:01:30.829Z,3.16
2023-03-07T17:03:59.142Z,3.06
2023-03-07T17:06:38.503Z,2.97
2023-03-07T17:09:09.434Z,2.92
2023-03-07T17:11:41.491Z,2.93
2023-03-07T17:14:17.446Z,2.86
2023-03-07T17:16:50.004Z,2.79
2023-03-07T17:19:28.086Z,2.71
2023-03-07T17:21:58.698Z,2.64
2023-03-07T17:24:29.545Z,2.50
2023-03-07T17:27:03.595Z,2.38
2023-03-07T17:29:39.324Z,2.33
2023-03-07T17:32:08.347Z,2.25
2023-03-07T17:34:40.439Z,2.19
2023-03-07T17:37:09.255Z,2.18
2023-03-07T17:39:38.588Z,2.09
2023-03-07T17:42:08.620Z,2.04
2023-03-07T17:44:36.985Z,1.89
2023-03-07T17:47:05.653Z,1.87
2023-03-07T17:49:35.660Z,1.79
2023-03-07T17:52:08.892Z,1.72
2023-03-07T17:54:37.340Z,1.67
2023-03-07T17:57:07.898Z,1.60
2023-03-07T17:59:36.395Z,1.59
2023-03-07T18:02:08.708Z,1.57
2023-03-07T18:04:37.413Z,1.52
2023-03-07T18:07:06.882Z,1.47
2023-03-07T18:09:35.948Z,1.43
2023-03-07T18:12:04.790Z,1.42
2023-03-07T18:14:34.447Z,1.44
2023-03-07T18:17:02.860Z,1.43
2023-03-07T18:19:31.210Z,1.41
2023-03-07T18:21:59.867Z,1.40
2023-03-07T18:24:30.367Z,1.43
2023-03-07T18:27:00.197Z,1.34
2023-03-07T18:29:29.468Z,1.31
2023-03-07T18:31:59.198Z,1.20
2023-03-07T18:34:27.782Z,0.97
2023-03-07T18:36:56.170Z,0.70
2023-03-07T18:39:25.581Z,0.59
2023-03-07T18:41:54.294Z,0.47
2023-03-07T18:44:22.585Z,0.41
2023-03-07T18:46:51.298Z,0.32
2023-03-07T18:49:20.970Z,0.26
2023-03-07T18:51:49.422Z,0.28
2023-03-07T18:54:17.737Z,0.31
2023-03-07T18:56:47.675Z,0.29
2023-03-07T18:59:16.234Z,0.24
2023-03-07T19:01:46.124Z,0.24
2023-03-07T19:04:14.467Z,0.36
2023-03-07T19:06:47.602Z,0.41
2023-03-07T19:09:18.554Z,0.36
2023-03-07T19:11:48.209Z,0.40
2023-03-07T19:14:16.755Z,0.49
2023-03-07T19:16:45.593Z,0.57
2023-03-07T19:19:14.159Z,0.62
2023-03-07T19:21:43.949Z,0.60
2023-03-07T19:24:13.315Z,0.49
2023-03-07T19:26:43.300Z,0.44
2023-03-07T19:29:13.067Z,0.41
2023-03-07T19:31:43.894Z,0.38
2023-03-07T19:34:12.576Z,0.31
2023-03-07T19:36:43.722Z,0.21
2023-03-07T19:39:20.126Z,0.20
2023-03-07T19:41:49.118Z,0.15
2023-03-07T19:44:19.658Z,0.11
2023-03-07T19:46:48.106Z,0.18
2023-03-07T19:49:17.594Z,0.28
2023-03-07T19:51:47.283Z,0.28
2023-03-07T19:54:16.414Z,0.21
2023-03-07T19:56:45.692Z,-0.07
2023-03-07T19:59:14.676Z,-0.20
2023-03-07T20:01:43.150Z,-0.44
2023-03-07T20:04:12.705Z,-0.66
2023-03-07T20:06:42.432Z,-0.80
2023-03-07T20:09:14.358Z,-0.96
2023-03-07T20:11:43.913Z,-1.17
2023-03-07T20:14:14.277Z,-1.22
2023-03-07T20:16:42.949Z,-1.22
2023-03-07T20:19:11.644Z,-1.17
2023-03-07T20:21:42.433Z,-1.14
2023-03-07T20:24:12.830Z,-1.05
2023-03-07T20:26:41.171Z,-0.92
2023-03-07T20:29:11.008Z,-0.79
2023-03-07T20:31:40.935Z,-0.77
2023-03-07T20:34:09.579Z,-0.69
2023-03-07T20:36:39.430Z,-0.60
2023-03-07T20:39:14.337Z,-0.43
2023-03-07T20:41:44.834Z,-0.33
2023-03-07T20:44:16.166Z,-0.25
2023-03-07T20:46:44.668Z,-0.30
2023-03-07T20:49:15.985Z,-0.22
2023-03-07T20:51:45.605Z,-0.10
2023-03-07T20:54:17.855Z,-0.01
2023-03-07T20:56:48.739Z,0.10
2023-03-07T20:59:20.391Z,0.17
2023-03-07T21:01:49.454Z,0.21
2023-03-07T21:04:20.666Z,0.27
2023-03-07T21:06:50.379Z,0.29
2023-03-07T21:09:20.686Z,0.39
2023-03-07T21:11:50.942Z,0.43
2023-03-07T21:14:21.127Z,0.49
2023-03-07T21:16:49.556Z,0.52
2023-03-07T21:19:18.267Z,0.62
2023-03-07T21:21:47.073Z,0.58
2023-03-07T21:24:16.300Z,0.54
2023-03-07T21:26:47.163Z,0.51
2023-03-07T21:29:16.119Z,0.41
2023-03-07T21:31:44.596Z,0.45
2023-03-07T21:34:15.139Z,0.37
2023-03-07T21:36:43.942Z,0.35
2023-03-07T21:39:12.756Z,0.21
2023-03-07T21:41:41.601Z,0.25
2023-03-07T21:44:12.268Z,0.18
2023-03-07T21:46:40.626Z,0.24
2023-03-07T21:49:09.049Z,0.27
2023-03-07T21:51:37.497Z,0.32
2023-03-07T21:54:06.363Z,0.31
2023-03-07T21:56:34.843Z,0.31
2023-03-07T21:59:03.260Z,0.25
2023-03-07T22:01:33.007Z,0.27
2023-03-07T22:04:01.478Z,0.23
2023-03-07T22:06:30.376Z,0.24
2023-03-07T22:09:00.885Z,0.20
2023-03-07T22:11:29.251Z,0.13
2023-03-07T22:13:58.353Z,0.18
2023-03-07T22:16:26.707Z,0.20
2023-03-07T22:18:58.157Z,0.24
2023-03-07T22:21:27.778Z,0.25
2023-03-07T22:24:00.642Z,0.40
2023-03-07T22:26:30.838Z,0.49
2023-03-07T22:29:01.120Z,0.57
2023-03-07T22:31:29.541Z,0.64
2023-03-07T22:34:00.795Z,0.68
2023-03-07T22:36:29.660Z,0.76
2023-03-07T22:38:58.427Z,0.69
2023-03-07T22:41:27.433Z,0.66
2023-03-07T22:43:55.956Z,0.70
2023-03-07T22:46:24.484Z,0.59
2023-03-07T22:48:54.701Z,0.52
2023-03-07T22:51:26.660Z,0.51
2023-03-07T22:53:55.710Z,0.52
2023-03-07T22:56:26.595Z,0.48
2023-03-07T22:58:55.276Z,0.56
2023-03-07T23:01:26.705Z,0.62
2023-03-07T23:03:58.056Z,0.65
2023-03-07T23:06:31.128Z,0.77
2023-03-07T23:09:00.641Z,0.87
2023-03-07T23:11:31.361Z,0.97
2023-03-07T23:14:00.372Z,1.04
2023-03-07T23:16:31.792Z,1.05
2023-03-07T23:19:01.253Z,1.11
2023-03-07T23:21:33.395Z,1.08
2023-03-07T23:24:04.107Z,1.09
2023-03-07T23:26:35.033Z,1.07
2023-03-07T23:29:03.699Z,1.05
2023-03-07T23:31:37.418Z,1.12
2023-03-07T23:34:08.757Z,1.13
2023-03-07T23:36:38.689Z,1.09
2023-03-07T23:39:08.327Z,1.10
2023-03-07T23:41:37.043Z,1.11
2023-03-07T23:44:06.316Z,1.13
2023-03-07T23:46:35.145Z,1.09
2023-03-07T23:49:03.601Z,1.06
2023-03-07T23:51:32.205Z,1.06
2023-03-07T23:54:02.034Z,1.07
2023-03-07T23:56:30.417Z,1.06
2023-03-07T23:58:58.802Z,1.04
